createdAt,value
2018-04-13T00:04:19.135Z,39.6
2018-04-13T00:14:18.358Z,39.7
2018-04-13T00:24:17.572Z,39.7
2018-04-13T00:34:16.780Z,39.8
2018-04-13T00:44:16.003Z,39.8
2018-04-13T00:54:15.212Z,39.8
2018-04-13T01:04:14.436Z,39.8
2018-04-13T01:14:13.704Z,39.6
2018-04-13T01:24:12.852Z,39.6
2018-04-13T01:34:12.120Z,39.7
2018-04-13T01:44:11.284Z,39.8
2018-04-13T01:54:10.549Z,39.8
2018-04-13T02:04:09.720Z,39.8
2018-04-13T02:14:08.987Z,39.8
2018-04-13T02:24:08.150Z,39.8
2018-04-13T02:34:07.411Z,39.9
2018-04-13T02:44:06.579Z,37.6
2018-04-13T02:54:05.843Z,33.7
2018-04-13T03:04:05.001Z,34.1
2018-04-13T03:14:04.226Z,34.1
2018-04-13T03:24:03.428Z,34.2
2018-04-13T03:34:02.641Z,34.3
2018-04-13T03:44:01.920Z,33.7
2018-04-13T03:54:01.073Z,33.2
2018-04-13T04:04:00.350Z,32.3
2018-04-13T04:13:59.515Z,32.4
2018-04-13T04:23:58.722Z,32.3
2018-04-13T04:33:57.936Z,32.4
2018-04-13T04:43:57.152Z,32.6
2018-04-13T04:53:56.417Z,32.7
2018-04-13T05:03:55.593Z,32.8
2018-04-13T05:13:54.799Z,32.9
2018-04-13T05:23:54.024Z,32.9
2018-04-13T05:33:53.277Z,32.8
2018-04-13T05:43:52.442Z,32.9
2018-04-13T05:53:51.657Z,33.1
2018-04-13T06:03:50.931Z,33.4
2018-04-13T06:13:50.087Z,33.9
2018-04-13T06:23:49.351Z,34.4
2018-04-13T06:33:48.513Z,35.1
2018-04-13T06:43:47.793Z,35.8
2018-04-13T06:53:46.953Z,36.6
2018-04-13T07:03:46.229Z,37.4
2018-04-13T07:13:45.380Z,38.4
2018-04-13T07:23:44.645Z,39.4
2018-04-13T07:33:43.800Z,40.4
2018-04-13T07:43:43.139Z,41.5
2018-04-13T07:53:42.239Z,42.6
2018-04-13T08:03:41.534Z,43.5
2018-04-13T08:13:40.707Z,44.5
2018-04-13T08:23:39.872Z,45.4
2018-04-13T08:33:39.121Z,46.3
2018-04-13T08:43:38.301Z,47.1
2018-04-13T08:53:37.516Z,47.8
2018-04-13T09:03:36.730Z,48.4
2018-04-13T09:13:35.994Z,49.2
2018-04-13T09:23:35.161Z,49.9
2018-04-13T09:33:34.426Z,50.6
2018-04-13T09:43:33.599Z,51.3
2018-04-13T09:53:32.854Z,52
2018-04-13T10:03:32.032Z,52.8
2018-04-13T10:13:31.238Z,53.4
2018-04-13T10:23:30.454Z,54.1
2018-04-13T10:33:29.685Z,54.8
2018-04-13T10:43:28.889Z,55.6
2018-04-13T10:53:28.106Z,56.2
2018-04-13T11:03:27.324Z,56.9
2018-04-13T11:13:26.544Z,57.7
2018-04-13T11:23:25.762Z,58.3
2018-04-13T11:33:24.971Z,59.1
2018-04-13T11:43:24.188Z,59.9
2018-04-13T11:53:23.465Z,60.6
2018-04-13T12:03:22.617Z,61.3
2018-04-13T12:13:21.834Z,61.9
2018-04-13T12:23:21.064Z,62.5
2018-04-13T12:33:20.273Z,63
2018-04-13T12:43:19.489Z,63.4
2018-04-13T12:53:18.722Z,63.8
2018-04-13T13:03:17.911Z,64.1
2018-04-13T13:13:17.137Z,64.4
2018-04-13T13:23:16.364Z,64.7
2018-04-13T13:33:15.612Z,64.9
2018-04-13T13:43:14.790Z,65.2
2018-04-13T13:53:14.047Z,65.4
2018-04-13T14:03:13.216Z,65.6
2018-04-13T14:13:12.428Z,65.8
2018-04-13T14:23:11.644Z,66.1
2018-04-13T14:33:10.858Z,66.3
2018-04-13T14:43:10.082Z,66.6
2018-04-13T14:53:09.288Z,67
2018-04-13T15:03:08.513Z,67.3
2018-04-13T15:13:07.719Z,67.5
2018-04-13T15:23:06.983Z,67.6
2018-04-13T15:33:06.161Z,67.7
2018-04-13T15:43:05.373Z,67.8
2018-04-13T15:53:04.589Z,67.9
2018-04-13T16:03:03.791Z,67.9
2018-04-13T16:13:03.014Z,67.9
2018-04-13T16:23:02.222Z,67.8
2018-04-13T16:33:01.435Z,67.8
2018-04-13T16:43:00.648Z,67.6
2018-04-13T16:52:59.872Z,67.6
2018-04-13T17:02:59.087Z,67.4
2018-04-13T17:12:59.568Z,67.3
2018-04-13T17:22:58.744Z,67.1
2018-04-13T17:32:58.012Z,66.8
2018-04-13T17:42:57.177Z,66.3
2018-04-13T17:52:56.452Z,65.8
2018-04-13T18:02:55.612Z,65.6
2018-04-13T18:12:54.839Z,65.1
2018-04-13T18:22:54.044Z,64.6
2018-04-13T18:32:53.262Z,62.7
2018-04-13T18:42:52.540Z,60.3
2018-04-13T18:52:51.700Z,59.8
2018-04-13T19:02:50.931Z,59.4
2018-04-13T19:12:50.133Z,58.7
2018-04-13T19:22:49.396Z,58.3
2018-04-13T19:32:48.561Z,57.9
2018-04-13T19:42:47.792Z,57.5
2018-04-13T19:52:47.002Z,57.1
2018-04-13T20:02:46.211Z,56.8
2018-04-13T20:12:45.472Z,55.4
2018-04-13T20:22:44.648Z,54.9
2018-04-13T20:32:43.866Z,54.8
2018-04-13T20:42:43.122Z,54.6
2018-04-13T20:52:42.289Z,54.4
2018-04-13T21:02:41.504Z,54.3
2018-04-13T21:12:40.760Z,54.1
2018-04-13T21:22:39.941Z,53.9
2018-04-13T21:32:39.162Z,53.8
2018-04-13T21:42:38.377Z,53.6
2018-04-13T21:52:37.593Z,53.4
2018-04-13T22:02:36.857Z,53.3
2018-04-13T22:12:36.013Z,53.2
2018-04-13T22:22:35.286Z,53.1
2018-04-13T22:32:34.443Z,52.9
2018-04-13T22:42:33.655Z,52.8
2018-04-13T22:52:32.872Z,52.7
2018-04-13T23:02:32.133Z,52.6
2018-04-13T23:12:31.299Z,52.6
2018-04-13T23:22:30.523Z,52.4
2018-04-13T23:32:29.729Z,52.4
2018-04-13T23:42:28.995Z,52.3
2018-04-13T23:52:28.156Z,52.2
